sensor_id;sensor_type;location;lat;lon;timestamp;pressure;altitude;pressure_sealevel;temperature;humidity
70374;BME280;57792;49.198;7.890;2022-08-21T00:00:58;98948.16;;;14.05;61.76
70374;BME280;57792;49.198;7.890;2022-08-21T00:02:00;98948.09;;;14.06;61.82
70374;BME280;57792;49.198;7.890;2022-08-21T00:03:03;98935.63;;;14.05;61.96
70374;BME280;57792;49.198;7.890;2022-08-21T00:04:07;98934.22;;;13.98;62.73
70374;BME280;57792;49.198;7.890;2022-08-21T00:05:08;98938.88;;;13.95;62.37
70374;BME280;57792;49.198;7.890;2022-08-21T00:06:08;98938.94;;;13.93;62.25
70374;BME280;57792;49.198;7.890;2022-08-21T00:07:08;98930.03;;;13.93;62.01
70374;BME280;57792;49.198;7.890;2022-08-21T00:08:09;98928.47;;;13.89;62.71
70374;BME280;57792;49.198;7.890;2022-08-21T00:09:10;98930.84;;;13.77;62.96
70374;BME280;57792;49.198;7.890;2022-08-21T00:10:10;98928.16;;;13.77;62.65
70374;BME280;57792;49.198;7.890;2022-08-21T00:11:11;98934.31;;;13.79;62.83
70374;BME280;57792;49.198;7.890;2022-08-21T00:12:12;98931.22;;;13.70;63.45
70374;BME280;57792;49.198;7.890;2022-08-21T00:13:13;98925.38;;;13.62;63.51
70374;BME280;57792;49.198;7.890;2022-08-21T00:14:14;98932.31;;;13.66;63.20
70374;BME280;57792;49.198;7.890;2022-08-21T00:15:18;98929.88;;;13.61;63.82
70374;BME280;57792;49.198;7.890;2022-08-21T00:16:19;98928.13;;;13.60;63.44
70374;BME280;57792;49.198;7.890;2022-08-21T00:17:19;98922.63;;;13.63;62.94
70374;BME280;57792;49.198;7.890;2022-08-21T00:18:20;98931.94;;;13.73;62.54
70374;BME280;57792;49.198;7.890;2022-08-21T00:19:20;98930.69;;;13.81;62.36
70374;BME280;57792;49.198;7.890;2022-08-21T00:20:25;98933.75;;;13.73;63.00
70374;BME280;57792;49.198;7.890;2022-08-21T00:21:26;98935.88;;;13.66;63.28
70374;BME280;57792;49.198;7.890;2022-08-21T00:22:27;98934.84;;;13.69;62.91
70374;BME280;57792;49.198;7.890;2022-08-21T00:23:27;98934.63;;;13.73;62.81
70374;BME280;57792;49.198;7.890;2022-08-21T00:24:27;98934.66;;;13.55;63.79
70374;BME280;57792;49.198;7.890;2022-08-21T00:25:28;98926.97;;;13.30;65.69
70374;BME280;57792;49.198;7.890;2022-08-21T00:26:28;98939.81;;;13.40;64.49
70374;BME280;57792;49.198;7.890;2022-08-21T00:27:28;98928.03;;;13.44;63.67
70374;BME280;57792;49.198;7.890;2022-08-21T00:28:29;98930.31;;;13.52;63.51
70374;BME280;57792;49.198;7.890;2022-08-21T00:29:29;98920.94;;;13.43;63.68
70374;BME280;57792;49.198;7.890;2022-08-21T00:30:30;98931.94;;;13.56;63.25
70374;BME280;57792;49.198;7.890;2022-08-21T00:31:31;98928.25;;;13.59;62.93
70374;BME280;57792;49.198;7.890;2022-08-21T00:32:32;98922.78;;;13.60;63.36
70374;BME280;57792;49.198;7.890;2022-08-21T00:33:33;98928.25;;;13.59;63.43
70374;BME280;57792;49.198;7.890;2022-08-21T00:34:34;98926.50;;;13.58;63.23
70374;BME280;57792;49.198;7.890;2022-08-21T00:35:36;98921.75;;;13.63;62.77
70374;BME280;57792;49.198;7.890;2022-08-21T00:36:37;98923.56;;;13.62;62.99
70374;BME280;57792;49.198;7.890;2022-08-21T00:37:39;98926.16;;;13.64;62.94
70374;BME280;57792;49.198;7.890;2022-08-21T00:38:40;98927.19;;;13.61;62.86
70374;BME280;57792;49.198;7.890;2022-08-21T00:39:40;98926.97;;;13.66;62.75
70374;BME280;57792;49.198;7.890;2022-08-21T00:40:48;98922.78;;;13.60;63.47
70374;BME280;57792;49.198;7.890;2022-08-21T00:41:48;98926.69;;;13.53;63.54
70374;BME280;57792;49.198;7.890;2022-08-21T00:42:49;98931.56;;;13.45;64.15
70374;BME280;57792;49.198;7.890;2022-08-21T00:43:50;98932.34;;;13.47;63.45
70374;BME280;57792;49.198;7.890;2022-08-21T00:44:51;98923.75;;;13.40;63.66
70374;BME280;57792;49.198;7.890;2022-08-21T00:45:52;98930.19;;;13.36;64.24
70374;BME280;57792;49.198;7.890;2022-08-21T00:46:53;98920.84;;;13.45;63.22
70374;BME280;57792;49.198;7.890;2022-08-21T00:47:53;98923.47;;;13.46;63.16
70374;BME280;57792;49.198;7.890;2022-08-21T00:48:55;98926.94;;;13.49;63.58
70374;BME280;57792;49.198;7.890;2022-08-21T00:49:56;98928.66;;;13.50;63.52
70374;BME280;57792;49.198;7.890;2022-08-21T00:51:02;98922.09;;;13.38;64.41
70374;BME280;57792;49.198;7.890;2022-08-21T00:52:05;98918.84;;;13.31;64.25
70374;BME280;57792;49.198;7.890;2022-08-21T00:53:07;98917.59;;;13.38;63.50
70374;BME280;57792;49.198;7.890;2022-08-21T00:54:09;98923.53;;;13.45;63.26
70374;BME280;57792;49.198;7.890;2022-08-21T00:55:11;98923.84;;;13.39;63.94
70374;BME280;57792;49.198;7.890;2022-08-21T00:56:13;98924.56;;;13.42;63.32
70374;BME280;57792;49.198;7.890;2022-08-21T00:57:17;98914.28;;;13.33;64.55
70374;BME280;57792;49.198;7.890;2022-08-21T00:58:20;98922.72;;;13.26;64.78
70374;BME280;57792;49.198;7.890;2022-08-21T00:59:21;98922.22;;;13.18;64.18
70374;BME280;57792;49.198;7.890;2022-08-21T01:00:29;98917.59;;;13.21;64.60
70374;BME280;57792;49.198;7.890;2022-08-21T01:01:30;98919.53;;;13.18;64.17
70374;BME280;57792;49.198;7.890;2022-08-21T01:02:30;98921.94;;;13.24;64.15
70374;BME280;57792;49.198;7.890;2022-08-21T01:03:31;98914.69;;;13.07;65.01
70374;BME280;57792;49.198;7.890;2022-08-21T01:04:33;98919.84;;;13.11;64.41
70374;BME280;57792;49.198;7.890;2022-08-21T01:05:34;98914.34;;;13.15;64.32
70374;BME280;57792;49.198;7.890;2022-08-21T01:06:35;98921.50;;;13.14;64.31
70374;BME280;57792;49.198;7.890;2022-08-21T01:07:36;98919.03;;;13.09;64.51
70374;BME280;57792;49.198;7.890;2022-08-21T01:08:36;98920.34;;;13.01;64.87
70374;BME280;57792;49.198;7.890;2022-08-21T01:09:37;98925.63;;;13.02;64.83
70374;BME280;57792;49.198;7.890;2022-08-21T01:10:37;98920.41;;;12.99;64.88
70374;BME280;57792;49.198;7.890;2022-08-21T01:11:39;98923.16;;;12.98;65.29
70374;BME280;57792;49.198;7.890;2022-08-21T01:12:40;98925.78;;;12.99;64.88
70374;BME280;57792;49.198;7.890;2022-08-21T01:13:41;98920.41;;;12.99;64.78
70374;BME280;57792;49.198;7.890;2022-08-21T01:14:45;98933.50;;;13.05;64.70
70374;BME280;57792;49.198;7.890;2022-08-21T01:15:47;98925.47;;;13.05;64.79
70374;BME280;57792;49.198;7.890;2022-08-21T01:16:51;98925.56;;;13.04;65.14
70374;BME280;57792;49.198;7.890;2022-08-21T01:17:53;98923.03;;;13.01;65.16
70374;BME280;57792;49.198;7.890;2022-08-21T01:18:54;98920.28;;;13.02;64.85
70374;BME280;57792;49.198;7.890;2022-08-21T01:19:59;98920.09;;;12.88;66.40
70374;BME280;57792;49.198;7.890;2022-08-21T01:21:15;98917.28;;;12.91;65.65
70374;BME280;57792;49.198;7.890;2022-08-21T01:22:16;98917.13;;;12.94;65.40
70374;BME280;57792;49.198;7.890;2022-08-21T01:23:16;98916.16;;;12.95;64.74
70374;BME280;57792;49.198;7.890;2022-08-21T01:24:17;98919.34;;;13.03;64.72
70374;BME280;57792;49.198;7.890;2022-08-21T01:25:18;98917.66;;;13.01;64.43
70374;BME280;57792;49.198;7.890;2022-08-21T01:26:27;98919.19;;;13.06;64.50
70374;BME280;57792;49.198;7.890;2022-08-21T01:27:27;98915.00;;;13.01;64.49
70374;BME280;57792;49.198;7.890;2022-08-21T01:28:31;98914.84;;;13.04;64.57
70374;BME280;57792;49.198;7.890;2022-08-21T01:30:42;98917.50;;;12.87;65.93
70374;BME280;57792;49.198;7.890;2022-08-21T01:31:43;98924.56;;;12.88;65.33
70374;BME280;57792;49.198;7.890;2022-08-21T01:32:44;98916.75;;;12.83;65.53
70374;BME280;57792;49.198;7.890;2022-08-21T01:33:45;98919.16;;;12.89;64.95
70374;BME280;57792;49.198;7.890;2022-08-21T01:34:48;98912.22;;;12.85;65.42
70374;BME280;57792;49.198;7.890;2022-08-21T01:35:49;98914.59;;;12.91;64.83
70374;BME280;57792;49.198;7.890;2022-08-21T01:36:49;98913.88;;;12.88;65.11
70374;BME280;57792;49.198;7.890;2022-08-21T01:37:50;98913.88;;;12.88;64.92
70374;BME280;57792;49.198;7.890;2022-08-21T01:38:50;98911.13;;;12.89;64.90
70374;BME280;57792;49.198;7.890;2022-08-21T01:39:51;98914.81;;;12.87;65.16
70374;BME280;57792;49.198;7.890;2022-08-21T01:40:52;98910.41;;;12.86;65.03
70374;BME280;57792;49.198;7.890;2022-08-21T01:41:52;98908.53;;;12.88;65.15
70374;BME280;57792;49.198;7.890;2022-08-21T01:42:52;98917.69;;;12.82;65.34
70374;BME280;57792;49.198;7.890;2022-08-21T01:43:53;98917.84;;;12.79;65.38
70374;BME280;57792;49.198;7.890;2022-08-21T01:44:53;98915.97;;;12.81;65.18
70374;BME280;57792;49.198;7.890;2022-08-21T01:45:54;98919.44;;;12.83;65.16
70374;BME280;57792;49.198;7.890;2022-08-21T01:46:55;98921.66;;;12.73;65.18
70374;BME280;57792;49.198;7.890;2022-08-21T01:47:57;98915.53;;;12.71;65.27
70374;BME280;57792;49.198;7.890;2022-08-21T01:48:58;98922.69;;;12.71;65.53
70374;BME280;57792;49.198;7.890;2022-08-21T01:49:59;98919.41;;;12.64;65.72
70374;BME280;57792;49.198;7.890;2022-08-21T01:50:59;98922.97;;;12.65;65.63
70374;BME280;57792;49.198;7.890;2022-08-21T01:52:00;98923.84;;;12.47;67.22
70374;BME280;57792;49.198;7.890;2022-08-21T01:53:01;98924.56;;;12.50;66.17
70374;BME280;57792;49.198;7.890;2022-08-21T01:54:02;98920.00;;;12.52;66.26
70374;BME280;57792;49.198;7.890;2022-08-21T01:55:05;98913.00;;;12.50;66.78
70374;BME280;57792;49.198;7.890;2022-08-21T01:56:08;98913.00;;;12.50;66.30
70374;BME280;57792;49.198;7.890;2022-08-21T01:57:08;98917.69;;;12.44;66.59
70374;BME280;57792;49.198;7.890;2022-08-21T01:58:09;98914.06;;;12.45;66.62
70374;BME280;57792;49.198;7.890;2022-08-21T01:59:10;98918.28;;;12.51;66.20
70374;BME280;57792;49.198;7.890;2022-08-21T02:00:13;98912.13;;;12.49;66.68
70374;BME280;57792;49.198;7.890;2022-08-21T02:01:14;98909.25;;;12.54;66.09
70374;BME280;57792;49.198;7.890;2022-08-21T02:02:14;98911.13;;;12.52;66.16
70374;BME280;57792;49.198;7.890;2022-08-21T02:03:15;98906.13;;;12.44;66.54
70374;BME280;57792;49.198;7.890;2022-08-21T02:04:15;98909.59;;;12.46;66.41
70374;BME280;57792;49.198;7.890;2022-08-21T02:05:16;98909.53;;;12.48;66.27
70374;BME280;57792;49.198;7.890;2022-08-21T02:06:17;98910.13;;;12.54;66.08
70374;BME280;57792;49.198;7.890;2022-08-21T02:07:17;98913.06;;;12.48;66.34
70374;BME280;57792;49.198;7.890;2022-08-21T02:08:18;98905.84;;;12.50;65.99
70374;BME280;57792;49.198;7.890;2022-08-21T02:09:19;98908.94;;;12.41;67.09
70374;BME280;57792;49.198;7.890;2022-08-21T02:10:28;98910.84;;;12.37;67.62
70374;BME280;57792;49.198;7.890;2022-08-21T02:11:28;98908.22;;;12.36;66.63
70374;BME280;57792;49.198;7.890;2022-08-21T02:12:28;98910.84;;;12.37;66.67
70374;BME280;57792;49.198;7.890;2022-08-21T02:13:29;98909.03;;;12.38;66.76
70374;BME280;57792;49.198;7.890;2022-08-21T02:14:29;98913.38;;;12.40;66.66
70374;BME280;57792;49.198;7.890;2022-08-21T02:15:30;98907.50;;;12.32;66.81
70374;BME280;57792;49.198;7.890;2022-08-21T02:16:31;98907.28;;;12.37;66.67
70374;BME280;57792;49.198;7.890;2022-08-21T02:17:46;98910.03;;;12.35;67.31
70374;BME280;57792;49.198;7.890;2022-08-21T02:18:47;98906.56;;;12.33;66.77
70374;BME280;57792;49.198;7.890;2022-08-21T02:19:48;98905.28;;;12.23;67.31
70374;BME280;57792;49.198;7.890;2022-08-21T02:20:49;98902.09;;;12.34;66.62
70374;BME280;57792;49.198;7.890;2022-08-21T02:21:50;98896.59;;;12.37;66.50
70374;BME280;57792;49.198;7.890;2022-08-21T02:22:50;98896.88;;;12.31;67.13
70374;BME280;57792;49.198;7.890;2022-08-21T02:23:51;98896.09;;;12.29;67.03
70374;BME280;57792;49.198;7.890;2022-08-21T02:24:51;98902.41;;;12.28;67.05
70374;BME280;57792;49.198;7.890;2022-08-21T02:25:52;98895.38;;;12.25;67.21
70374;BME280;57792;49.198;7.890;2022-08-21T02:26:52;98900.72;;;12.25;67.15
70374;BME280;57792;49.198;7.890;2022-08-21T02:27:53;98900.59;;;12.28;66.33
70374;BME280;57792;49.198;7.890;2022-08-21T02:28:54;98895.06;;;12.31;66.66
70374;BME280;57792;49.198;7.890;2022-08-21T02:29:57;98897.75;;;12.31;66.77
70374;BME280;57792;49.198;7.890;2022-08-21T02:30:57;98892.84;;;12.22;66.80
70374;BME280;57792;49.198;7.890;2022-08-21T02:31:58;98896.44;;;12.21;67.05
70374;BME280;57792;49.198;7.890;2022-08-21T02:32:58;98897.06;;;12.28;66.84
70374;BME280;57792;49.198;7.890;2022-08-21T02:33:59;98894.38;;;12.28;66.77
70374;BME280;57792;49.198;7.890;2022-08-21T02:35:00;98894.50;;;12.25;66.83
70374;BME280;57792;49.198;7.890;2022-08-21T02:36:01;98888.16;;;12.27;66.64
70374;BME280;57792;49.198;7.890;2022-08-21T02:37:01;98896.00;;;12.30;66.72
70374;BME280;57792;49.198;7.890;2022-08-21T02:38:06;98895.16;;;12.30;66.77
70374;BME280;57792;49.198;7.890;2022-08-21T02:39:06;98889.31;;;12.22;66.82
70374;BME280;57792;49.198;7.890;2022-08-21T02:40:07;98884.16;;;12.17;67.02
70374;BME280;57792;49.198;7.890;2022-08-21T02:41:14;98896.00;;;12.11;67.66
70374;BME280;57792;49.198;7.890;2022-08-21T02:42:15;98902.41;;;12.07;67.67
70374;BME280;57792;49.198;7.890;2022-08-21T02:43:17;98900.53;;;12.09;67.29
70374;BME280;57792;49.198;7.890;2022-08-21T02:44:17;98906.34;;;11.99;68.62
70374;BME280;57792;49.198;7.890;2022-08-21T02:45:19;98897.25;;;12.03;67.47
70374;BME280;57792;49.198;7.890;2022-08-21T02:46:20;98892.91;;;12.00;67.57
70374;BME280;57792;49.198;7.890;2022-08-21T02:47:21;98890.63;;;11.93;67.86
70374;BME280;57792;49.198;7.890;2022-08-21T02:48:24;98894.72;;;12.00;67.65
70374;BME280;57792;49.198;7.890;2022-08-21T02:49:25;98891.19;;;11.99;67.54
70374;BME280;57792;49.198;7.890;2022-08-21T02:50:30;98895.03;;;11.94;68.35
70374;BME280;57792;49.198;7.890;2022-08-21T02:51:30;98895.34;;;11.86;68.51
70374;BME280;57792;49.198;7.890;2022-08-21T02:52:31;98895.81;;;11.75;69.01
70374;BME280;57792;49.198;7.890;2022-08-21T02:53:32;98892.75;;;11.64;69.75
70374;BME280;57792;49.198;7.890;2022-08-21T02:54:34;98894.22;;;11.51;70.54
70374;BME280;57792;49.198;7.890;2022-08-21T02:55:37;98891.78;;;11.65;69.67
70374;BME280;57792;49.198;7.890;2022-08-21T02:56:37;98884.75;;;11.64;68.83
70374;BME280;57792;49.198;7.890;2022-08-21T02:57:38;98893.88;;;11.59;70.08
70374;BME280;57792;49.198;7.890;2022-08-21T02:58:42;98888.19;;;11.66;69.13
70374;BME280;57792;49.198;7.890;2022-08-21T02:59:43;98891.59;;;11.70;68.76
70374;BME280;57792;49.198;7.890;2022-08-21T03:00:44;98885.19;;;11.74;68.41
70374;BME280;57792;49.198;7.890;2022-08-21T03:01:45;98886.75;;;11.79;68.55
70374;BME280;57792;49.198;7.890;2022-08-21T03:02:45;98888.41;;;11.82;68.33
70374;BME280;57792;49.198;7.890;2022-08-21T03:03:47;98893.75;;;11.82;68.75
70374;BME280;57792;49.198;7.890;2022-08-21T03:04:49;98892.75;;;11.85;68.21
70374;BME280;57792;49.198;7.890;2022-08-21T03:05:50;98891.06;;;11.82;68.70
70374;BME280;57792;49.198;7.890;2022-08-21T03:06:51;98886.41;;;11.87;68.09
70374;BME280;57792;49.198;7.890;2022-08-21T03:07:51;98883.81;;;11.86;68.41
70374;BME280;57792;49.198;7.890;2022-08-21T03:08:52;98884.94;;;11.80;68.30
70374;BME280;57792;49.198;7.890;2022-08-21T03:09:52;98888.34;;;11.84;68.20
70374;BME280;57792;49.198;7.890;2022-08-21T03:10:53;98885.06;;;11.77;68.52
70374;BME280;57792;49.198;7.890;2022-08-21T03:11:54;98891.22;;;11.79;68.35
70374;BME280;57792;49.198;7.890;2022-08-21T03:12:54;98882.59;;;11.72;68.48
70374;BME280;57792;49.198;7.890;2022-08-21T03:13:55;98887.94;;;11.72;68.61
70374;BME280;57792;49.198;7.890;2022-08-21T03:14:55;98884.53;;;11.69;68.71
70374;BME280;57792;49.198;7.890;2022-08-21T03:15:55;98886.25;;;11.70;68.61
70374;BME280;57792;49.198;7.890;2022-08-21T03:16:56;98889.88;;;11.69;68.32
70374;BME280;57792;49.198;7.890;2022-08-21T03:17:56;98887.13;;;11.70;68.53
70374;BME280;57792;49.198;7.890;2022-08-21T03:18:57;98886.19;;;11.71;68.74
70374;BME280;57792;49.198;7.890;2022-08-21T03:19:57;98881.78;;;11.70;68.81
70374;BME280;57792;49.198;7.890;2022-08-21T03:20:58;98879.13;;;11.70;68.22
70374;BME280;57792;49.198;7.890;2022-08-21T03:21:58;98879.13;;;11.70;68.37
70374;BME280;57792;49.198;7.890;2022-08-21T03:22:59;98881.78;;;11.70;68.64
70374;BME280;57792;49.198;7.890;2022-08-21T03:24:00;98890.94;;;11.65;69.36
70374;BME280;57792;49.198;7.890;2022-08-21T03:25:00;98889.00;;;11.68;68.48
70374;BME280;57792;49.198;7.890;2022-08-21T03:26:01;98883.41;;;11.54;69.24
70374;BME280;57792;49.198;7.890;2022-08-21T03:27:01;98889.13;;;11.45;69.53
70374;BME280;57792;49.198;7.890;2022-08-21T03:28:04;98880.69;;;11.34;70.39
70374;BME280;57792;49.198;7.890;2022-08-21T03:29:04;98880.56;;;11.15;71.38
70374;BME280;57792;49.198;7.890;2022-08-21T03:30:06;98884.44;;;11.30;70.08
70374;BME280;57792;49.198;7.890;2022-08-21T03:31:07;98881.09;;;11.25;70.26
70374;BME280;57792;49.198;7.890;2022-08-21T03:32:08;98882.72;;;11.29;69.84
70374;BME280;57792;49.198;7.890;2022-08-21T03:33:09;98887.69;;;11.36;69.64
70374;BME280;57792;49.198;7.890;2022-08-21T03:34:10;98880.84;;;11.31;69.82
70374;BME280;57792;49.198;7.890;2022-08-21T03:35:10;98884.16;;;11.36;69.55
70374;BME280;57792;49.198;7.890;2022-08-21T03:36:11;98887.75;;;11.35;69.51
70374;BME280;57792;49.198;7.890;2022-08-21T03:37:12;98881.19;;;11.43;69.17
70374;BME280;57792;49.198;7.890;2022-08-21T03:38:13;98884.72;;;11.44;69.24
70374;BME280;57792;49.198;7.890;2022-08-21T03:39:14;98885.47;;;11.48;68.80
70374;BME280;57792;49.198;7.890;2022-08-21T03:40:17;98889.00;;;11.48;69.30
70374;BME280;57792;49.198;7.890;2022-08-21T03:41:18;98888.19;;;11.46;69.50
70374;BME280;57792;49.198;7.890;2022-08-21T03:42:18;98885.34;;;11.51;69.11
70374;BME280;57792;49.198;7.890;2022-08-21T03:43:19;98887.00;;;11.53;68.83
70374;BME280;57792;49.198;7.890;2022-08-21T03:44:19;98892.47;;;11.50;69.07
70374;BME280;57792;49.198;7.890;2022-08-21T03:45:20;98889.06;;;11.47;69.26
70374;BME280;57792;49.198;7.890;2022-08-21T03:46:21;98881.84;;;11.49;69.00
70374;BME280;57792;49.198;7.890;2022-08-21T03:47:22;98888.06;;;11.49;68.64
70374;BME280;57792;49.198;7.890;2022-08-21T03:48:22;98884.53;;;11.49;68.76
70374;BME280;57792;49.198;7.890;2022-08-21T03:49:24;98888.06;;;11.49;68.97
70374;BME280;57792;49.198;7.890;2022-08-21T03:50:26;98886.31;;;11.48;69.13
70374;BME280;57792;49.198;7.890;2022-08-21T03:51:27;98890.59;;;11.32;69.60
70374;BME280;57792;49.198;7.890;2022-08-21T03:52:28;98879.25;;;11.27;69.89
70374;BME280;57792;49.198;7.890;2022-08-21T03:53:28;98886.19;;;11.31;69.67
70374;BME280;57792;49.198;7.890;2022-08-21T03:54:30;98880.03;;;11.29;69.41
70374;BME280;57792;49.198;7.890;2022-08-21T03:55:31;98878.38;;;11.26;69.66
70374;BME280;57792;49.198;7.890;2022-08-21T03:56:31;98879.25;;;11.27;69.60
70374;BME280;57792;49.198;7.890;2022-08-21T03:57:32;98881.78;;;11.30;69.53
70374;BME280;57792;49.198;7.890;2022-08-21T03:58:32;98887.50;;;11.21;70.36
70374;BME280;57792;49.198;7.890;2022-08-21T03:59:32;98886.41;;;11.03;71.42
70374;BME280;57792;49.198;7.890;2022-08-21T04:00:33;98883.25;;;10.93;71.30
70374;BME280;57792;49.198;7.890;2022-08-21T04:01:34;98890.81;;;10.82;72.60
70374;BME280;57792;49.198;7.890;2022-08-21T04:02:34;98883.00;;;10.77;71.81
70374;BME280;57792;49.198;7.890;2022-08-21T04:03:36;98889.88;;;10.83;72.04
70374;BME280;57792;49.198;7.890;2022-08-21T04:04:37;98897.13;;;10.79;72.49
70374;BME280;57792;49.198;7.890;2022-08-21T04:05:37;98890.63;;;10.87;71.90
70374;BME280;57792;49.198;7.890;2022-08-21T04:06:37;98892.66;;;10.80;71.90
70374;BME280;57792;49.198;7.890;2022-08-21T04:07:38;98897.81;;;10.85;71.75
70374;BME280;57792;49.198;7.890;2022-08-21T04:08:38;98896.72;;;10.90;71.53
70374;BME280;57792;49.198;7.890;2022-08-21T04:09:39;98895.28;;;11.03;70.88
70374;BME280;57792;49.198;7.890;2022-08-21T04:10:40;98897.63;;;11.11;70.56
70374;BME280;57792;49.198;7.890;2022-08-21T04:11:41;98894.81;;;11.16;70.38
70374;BME280;57792;49.198;7.890;2022-08-21T04:12:41;98895.72;;;11.15;70.35
70374;BME280;57792;49.198;7.890;2022-08-21T04:13:41;98890.28;;;11.18;70.46
70374;BME280;57792;49.198;7.890;2022-08-21T04:14:42;98898.28;;;11.18;69.86
70374;BME280;57792;49.198;7.890;2022-08-21T04:15:42;98898.16;;;11.21;69.92
70374;BME280;57792;49.198;7.890;2022-08-21T04:16:43;98889.47;;;11.16;69.85
70374;BME280;57792;49.198;7.890;2022-08-21T04:17:44;98895.78;;;11.13;70.09
70374;BME280;57792;49.198;7.890;2022-08-21T04:18:44;98889.69;;;11.09;69.83
70374;BME280;57792;49.198;7.890;2022-08-21T04:19:45;98893.09;;;11.13;70.11
70374;BME280;57792;49.198;7.890;2022-08-21T04:20:48;98887.66;;;10.94;71.47
70374;BME280;57792;49.198;7.890;2022-08-21T04:21:49;98888.31;;;10.77;71.44
70374;BME280;57792;49.198;7.890;2022-08-21T04:22:50;98891.63;;;10.84;71.26
70374;BME280;57792;49.198;7.890;2022-08-21T04:23:54;98898.63;;;10.87;71.45
70374;BME280;57792;49.198;7.890;2022-08-21T04:24:54;98889.13;;;10.79;71.16
70374;BME280;57792;49.198;7.890;2022-08-21T04:25:56;98894.84;;;10.92;70.73
70374;BME280;57792;49.198;7.890;2022-08-21T04:26:56;98895.78;;;10.91;70.84
70374;BME280;57792;49.198;7.890;2022-08-21T04:27:57;98899.56;;;10.86;71.51
70374;BME280;57792;49.198;7.890;2022-08-21T04:28:58;98898.75;;;10.84;71.68
70374;BME280;57792;49.198;7.890;2022-08-21T04:29:58;98898.63;;;10.87;71.03
70374;BME280;57792;49.198;7.890;2022-08-21T04:31:00;98896.03;;;10.85;71.16
70374;BME280;57792;49.198;7.890;2022-08-21T04:32:00;98902.97;;;10.89;70.86
70374;BME280;57792;49.198;7.890;2022-08-21T04:33:00;98899.50;;;10.87;70.84
70374;BME280;57792;49.198;7.890;2022-08-21T04:34:01;98906.63;;;10.87;71.28
70374;BME280;57792;49.198;7.890;2022-08-21T04:35:06;98901.25;;;10.88;71.23
70374;BME280;57792;49.198;7.890;2022-08-21T04:36:07;98898.34;;;10.94;70.41
70374;BME280;57792;49.198;7.890;2022-08-21T04:37:08;98901.94;;;10.93;70.51
70374;BME280;57792;49.198;7.890;2022-08-21T04:38:08;98894.53;;;11.00;70.20
70374;BME280;57792;49.198;7.890;2022-08-21T04:39:09;98901.75;;;10.98;70.33
70374;BME280;57792;49.198;7.890;2022-08-21T04:40:11;98905.59;;;10.91;70.78
70374;BME280;57792;49.198;7.890;2022-08-21T04:41:12;98903.91;;;10.88;70.70
70374;BME280;57792;49.198;7.890;2022-08-21T04:42:13;98914.63;;;10.87;70.96
70374;BME280;57792;49.198;7.890;2022-08-21T04:43:14;98906.41;;;10.93;70.46
70374;BME280;57792;49.198;7.890;2022-08-21T04:44:14;98909.88;;;10.95;70.69
70374;BME280;57792;49.198;7.890;2022-08-21T04:45:26;98911.09;;;10.64;72.29
70374;BME280;57792;49.198;7.890;2022-08-21T04:46:27;98913.81;;;10.63;71.84
70374;BME280;57792;49.198;7.890;2022-08-21T04:47:28;98908.91;;;10.74;71.14
70374;BME280;57792;49.198;7.890;2022-08-21T04:48:28;98920.56;;;10.71;71.84
70374;BME280;57792;49.198;7.890;2022-08-21T04:49:28;98919.47;;;10.77;71.23
70374;BME280;57792;49.198;7.890;2022-08-21T04:50:53;98917.28;;;10.65;71.80
70374;BME280;57792;49.198;7.890;2022-08-21T04:52:01;98918.75;;;10.72;72.12
70374;BME280;57792;49.198;7.890;2022-08-21T04:53:03;98921.03;;;10.83;71.03
70374;BME280;57792;49.198;7.890;2022-08-21T04:54:10;98917.59;;;10.79;71.24
70374;BME280;57792;49.198;7.890;2022-08-21T04:55:12;98918.97;;;10.89;70.56
70374;BME280;57792;49.198;7.890;2022-08-21T04:56:15;98914.34;;;10.94;70.36
70374;BME280;57792;49.198;7.890;2022-08-21T04:57:19;98915.97;;;10.98;70.10
70374;BME280;57792;49.198;7.890;2022-08-21T04:58:21;98912.47;;;10.96;70.55
70374;BME280;57792;49.198;7.890;2022-08-21T04:59:27;98917.75;;;10.98;70.66
70374;BME280;57792;49.198;7.890;2022-08-21T05:00:28;98920.22;;;11.02;70.05
70374;BME280;57792;49.198;7.890;2022-08-21T05:01:31;98918.06;;;10.90;70.76
70374;BME280;57792;49.198;7.890;2022-08-21T05:02:32;98917.81;;;10.96;70.14
70374;BME280;57792;49.198;7.890;2022-08-21T05:03:34;98915.16;;;10.96;70.00
70374;BME280;57792;49.198;7.890;2022-08-21T05:04:43;98917.06;;;10.93;71.12
70374;BME280;57792;49.198;7.890;2022-08-21T05:05:45;98920.59;;;10.93;70.74
70374;BME280;57792;49.198;7.890;2022-08-21T05:06:46;98925.75;;;10.98;70.61
70374;BME280;57792;49.198;7.890;2022-08-21T05:07:48;98916.81;;;10.99;70.73
70374;BME280;57792;49.198;7.890;2022-08-21T05:08:51;98917.75;;;10.98;70.62
70374;BME280;57792;49.198;7.890;2022-08-21T05:09:53;98923.41;;;10.90;71.40
70374;BME280;57792;49.198;7.890;2022-08-21T05:10:54;98929.84;;;10.85;71.67
70374;BME280;57792;49.198;7.890;2022-08-21T05:11:55;98921.03;;;10.83;71.55
70374;BME280;57792;49.198;7.890;2022-08-21T05:12:56;98926.88;;;10.69;72.72
70374;BME280;57792;49.198;7.890;2022-08-21T05:13:57;98933.41;;;10.62;72.57
70374;BME280;57792;49.198;7.890;2022-08-21T05:14:58;98930.25;;;10.74;71.94
70374;BME280;57792;49.198;7.890;2022-08-21T05:15:58;98929.84;;;10.85;71.49
70374;BME280;57792;49.198;7.890;2022-08-21T05:16:59;98927.00;;;10.89;71.29
70374;BME280;57792;49.198;7.890;2022-08-21T05:17:59;98925.00;;;10.94;71.27
70374;BME280;57792;49.198;7.890;2022-08-21T05:18:59;98920.28;;;11.01;71.34
70374;BME280;57792;49.198;7.890;2022-08-21T05:20:00;98928.22;;;11.02;71.24
70374;BME280;57792;49.198;7.890;2022-08-21T05:21:02;98930.22;;;10.97;71.63
70374;BME280;57792;49.198;7.890;2022-08-21T05:22:03;98923.63;;;11.06;70.98
70374;BME280;57792;49.198;7.890;2022-08-21T05:23:11;98932.84;;;10.99;71.98
70374;BME280;57792;49.198;7.890;2022-08-21T05:24:12;98934.47;;;11.01;71.47
70374;BME280;57792;49.198;7.890;2022-08-21T05:25:12;98935.28;;;11.03;71.35
70374;BME280;57792;49.198;7.890;2022-08-21T05:26:13;98932.50;;;11.06;71.16
70374;BME280;57792;49.198;7.890;2022-08-21T05:27:13;98925.69;;;10.99;71.86